Time;durP1;ratioP1;P1;durP2;ratioP2;P2;SDS_P1;SDS_P2;PMS_P1;PMS_P2;Temp;Humidity;BMP_temperature;BMP_pressure;BME280_temperature;BME280_humidity;BME280_pressure;Samples;Min_cycle;Max_cycle;Signal;HPM_P1;HPM_P2
2021/07/03 04:31:05;;;;;;;15.53;12.20;;;12.80;99.90;;;;;;5983073;23;21291;-76
2021/07/03 04:33:31;;;;;;;13.20;10.87;;;12.90;99.90;;;;;;4969300;28;20510;-76
2021/07/03 04:35:56;;;;;;;15.37;10.90;;;13.00;99.90;;;;;;4972888;28;20303;-73
2021/07/03 04:38:22;;;;;;;15.63;11.67;;;13.20;99.90;;;;;;4972287;28;20551;-74
2021/07/03 04:40:48;;;;;;;15.50;10.23;;;13.20;99.90;;;;;;4972445;28;20208;-74
2021/07/03 04:43:13;;;;;;;14.40;11.77;;;13.40;99.90;;;;;;4972942;28;20176;-73
2021/07/03 04:45:39;;;;;;;13.30;11.10;;;13.40;99.90;;;;;;4973017;28;20180;-74
2021/07/03 04:48:04;;;;;;;10.57;9.57;;;13.50;99.90;;;;;;4972249;28;20525;-74
2021/07/03 04:50:30;;;;;;;16.63;11.60;;;13.60;99.90;;;;;;4972405;28;20203;-74
2021/07/03 04:52:55;;;;;;;15.23;11.33;;;13.70;99.90;;;;;;4973035;28;20202;-74
2021/07/03 04:55:21;;;;;;;11.57;9.30;;;13.80;99.90;;;;;;4972647;28;20250;-74
2021/07/03 04:57:46;;;;;;;13.40;9.47;;;14.00;99.90;;;;;;4972557;28;20182;-74
2021/07/03 05:00:13;;;;;;;14.07;10.43;;;14.10;99.90;;;;;;4972690;28;20266;-74
2021/07/03 05:02:38;;;;;;;15.87;9.93;;;14.30;99.90;;;;;;4972322;28;20172;-74
2021/07/03 05:05:04;;;;;;;15.60;10.13;;;14.50;99.90;;;;;;4972407;28;20435;-74
2021/07/03 05:07:30;;;;;;;12.83;10.77;;;14.80;99.90;;;;;;4972916;28;20192;-74
2021/07/03 05:09:55;;;;;;;11.70;10.50;;;15.20;99.90;;;;;;4973045;28;20427;-74
2021/07/03 05:12:21;;;;;;;15.37;10.73;;;15.70;99.90;;;;;;4972365;28;20200;-74
2021/07/03 05:14:47;;;;;;;14.87;10.10;;;16.10;99.90;;;;;;4972664;28;20176;-74
2021/07/03 05:17:12;;;;;;;18.13;10.03;;;16.50;99.90;;;;;;4972571;28;20215;-75
2021/07/03 05:19:38;;;;;;;14.67;9.87;;;16.90;99.90;;;;;;4955231;28;20246;-74
2021/07/03 05:22:03;;;;;;;12.17;9.70;;;17.30;99.90;;;;;;4972371;28;20192;-75
2021/07/03 05:24:29;;;;;;;10.87;9.47;;;17.70;99.90;;;;;;4973523;28;20172;-75
2021/07/03 05:26:55;;;;;;;13.10;9.20;;;18.20;99.90;;;;;;4972869;28;20184;-76
2021/07/03 05:29:20;;;;;;;11.50;9.67;;;18.50;99.90;;;;;;4972438;28;20176;-74
2021/07/03 05:31:46;;;;;;;10.10;8.73;;;18.50;99.90;;;;;;4971787;28;20584;-76
2021/07/03 05:34:11;;;;;;;11.73;9.57;;;18.60;99.90;;;;;;4971989;28;20319;-77
2021/07/03 05:36:37;;;;;;;10.30;8.40;;;18.90;99.90;;;;;;4970596;28;20208;-75
2021/07/03 05:39:04;;;;;;;13.77;8.53;;;19.10;99.90;;;;;;4971851;28;20242;-74
2021/07/03 05:41:30;;;;;;;11.00;9.00;;;19.50;99.90;;;;;;4954694;28;20681;-76
2021/07/03 05:43:56;;;;;;;10.10;8.80;;;19.80;99.90;;;;;;4973185;28;20422;-76
2021/07/03 05:46:21;;;;;;;11.80;8.23;;;20.10;99.90;;;;;;4978423;28;20411;-76
2021/07/03 05:48:47;;;;;;;11.20;8.10;;;20.30;99.90;;;;;;4978097;28;20179;-76
2021/07/03 05:51:13;;;;;;;10.13;9.03;;;20.40;99.90;;;;;;4978681;28;20435;-76
2021/07/03 05:53:39;;;;;;;9.40;8.50;;;20.50;99.90;;;;;;4978080;28;20543;-76
2021/07/03 05:56:05;;;;;;;12.23;8.87;;;20.70;99.90;;;;;;4978751;28;20455;-77
2021/07/03 05:58:31;;;;;;;10.73;8.97;;;20.90;99.90;;;;;;4979075;28;20235;-76
2021/07/03 06:00:57;;;;;;;8.67;7.73;;;21.10;99.90;;;;;;4961018;28;20447;-73
2021/07/03 06:03:22;;;;;;;10.63;7.77;;;21.20;99.90;;;;;;4978199;28;20641;-73
2021/07/03 06:05:48;;;;;;;9.60;7.53;;;21.40;99.90;;;;;;4977856;28;20180;-73
2021/07/03 06:08:14;;;;;;;12.80;9.00;;;21.50;99.90;;;;;;4978313;28;20222;-73
2021/07/03 06:10:40;;;;;;;11.23;7.63;;;21.40;99.90;;;;;;4977020;28;20947;-74
2021/07/03 06:13:05;;;;;;;8.30;7.50;;;21.60;99.90;;;;;;4978214;28;20176;-73
2021/07/03 06:15:31;;;;;;;9.77;8.07;;;21.80;99.90;;;;;;4978199;28;20188;-73
2021/07/03 06:17:56;;;;;;;10.07;8.67;;;21.90;99.90;;;;;;4960501;28;20191;-73
2021/07/03 06:20:22;;;;;;;8.63;7.40;;;22.00;99.90;;;;;;4978348;28;20233;-73
2021/07/03 06:22:48;;;;;;;10.30;8.50;;;22.20;99.90;;;;;;4976656;28;20604;-73
2021/07/03 06:25:14;;;;;;;11.30;8.90;;;22.40;99.90;;;;;;4978368;28;20182;-74
2021/07/03 06:27:39;;;;;;;17.40;8.80;;;22.40;99.90;;;;;;4978402;28;20179;-75
2021/07/03 06:30:10;;;;;;;13.90;8.10;;;22.40;99.90;;;;;;4961061;28;20219;-75
2021/07/03 06:32:36;;;;;;;8.43;7.63;;;22.20;99.90;;;;;;4960600;28;20223;-74
2021/07/03 06:35:03;;;;;;;8.77;8.00;;;22.50;99.90;;;;;;4978635;28;20632;-75
2021/07/03 06:37:28;;;;;;;9.70;7.70;;;22.70;99.90;;;;;;4978498;28;20750;-73
2021/07/03 06:39:54;;;;;;;9.50;8.10;;;23.00;99.90;;;;;;4978925;28;20416;-75
2021/07/03 06:42:21;;;;;;;12.07;7.27;;;23.30;99.90;;;;;;4978476;28;20676;-75
2021/07/03 06:44:47;;;;;;;10.30;9.30;;;23.40;99.90;;;;;;4970901;28;20428;-76
2021/07/03 06:47:13;;;;;;;10.00;8.00;;;23.60;99.90;;;;;;4970064;28;20855;-75
2021/07/03 06:49:40;;;;;;;7.97;7.10;;;23.70;99.90;;;;;;4977802;28;20454;-75
2021/07/03 06:52:06;;;;;;;12.77;8.00;;;23.70;99.90;;;;;;4960508;28;20491;-75
2021/07/03 06:54:31;;;;;;;7.97;7.17;;;23.90;99.90;;;;;;4978079;28;20454;-75
2021/07/03 06:56:57;;;;;;;10.20;7.60;;;24.20;99.90;;;;;;4974951;28;20252;-75
2021/07/03 06:59:25;;;;;;;8.97;7.60;;;24.10;99.90;;;;;;4975052;28;20200;-75
2021/07/03 07:01:50;;;;;;;8.80;6.70;;;24.10;99.90;;;;;;4978039;28;20435;-76
2021/07/03 07:04:17;;;;;;;9.37;7.90;;;24.30;99.90;;;;;;4974863;28;20418;-75
2021/07/03 07:06:43;;;;;;;8.03;7.23;;;24.50;99.90;;;;;;4957395;28;20183;-75
2021/07/03 07:09:08;;;;;;;11.23;7.10;;;24.60;99.90;;;;;;4974900;28;20495;-74
2021/07/03 07:11:34;;;;;;;8.10;7.33;;;24.80;99.90;;;;;;4957219;28;20200;-75
2021/07/03 07:13:59;;;;;;;8.20;7.17;;;24.80;99.90;;;;;;4974538;28;20184;-75
2021/07/03 07:16:25;;;;;;;9.07;7.37;;;25.10;99.90;;;;;;4974627;28;20203;-74
2021/07/03 07:18:50;;;;;;;11.37;6.67;;;25.40;99.90;;;;;;4974320;28;20176;-74
2021/07/03 07:21:16;;;;;;;6.77;5.47;;;25.60;99.90;;;;;;4974698;28;20246;-74
2021/07/03 07:23:42;;;;;;;6.80;5.83;;;25.70;99.90;;;;;;4974053;28;20341;-74
2021/07/03 07:26:07;;;;;;;6.00;5.50;;;25.60;99.90;;;;;;4974572;28;20658;-74
2021/07/03 07:28:33;;;;;;;6.93;6.30;;;25.70;99.90;;;;;;4974117;28;20703;-74
2021/07/03 07:30:59;;;;;;;7.13;6.00;;;25.90;99.90;;;;;;4974261;28;20212;-73
2021/07/03 07:33:24;;;;;;;7.40;5.80;;;26.00;99.90;;;;;;4973984;28;20442;-73
2021/07/03 07:35:50;;;;;;;6.77;6.17;;;25.80;99.90;;;;;;4973972;28;20207;-72
2021/07/03 07:38:15;;;;;;;6.50;5.90;;;26.00;99.90;;;;;;4974406;28;20637;-73
2021/07/03 07:40:41;;;;;;;8.30;5.53;;;26.00;99.90;;;;;;4967329;28;20692;-73
2021/07/03 07:43:07;;;;;;;9.47;6.03;;;25.80;99.90;;;;;;4973906;28;20269;-73
2021/07/03 07:45:32;;;;;;;6.20;5.60;;;25.80;99.90;;;;;;4974218;28;20176;-73
2021/07/03 07:47:58;;;;;;;8.27;6.10;;;25.90;99.90;;;;;;4956709;28;20180;-73
2021/07/03 07:50:23;;;;;;;6.13;5.53;;;25.90;99.90;;;;;;4974125;28;20211;-73
2021/07/03 07:52:49;;;;;;;15.43;5.47;;;26.00;99.90;;;;;;4956724;28;20641;-73
2021/07/03 07:55:14;;;;;;;7.10;6.40;;;26.00;99.90;;;;;;4956525;28;20187;-73
2021/07/03 07:57:43;;;;;;;6.17;5.63;;;26.00;99.90;;;;;;4974108;28;20620;-73
2021/07/03 08:00:09;;;;;;;6.33;5.83;;;26.10;99.90;;;;;;4974136;28;20622;-74
2021/07/03 08:02:35;;;;;;;5.87;5.20;;;26.00;99.90;;;;;;4973265;28;20912;-75
2021/07/03 08:05:03;;;;;;;5.20;4.70;;;26.00;99.90;;;;;;4973731;28;20420;-75
2021/07/03 08:07:29;;;;;;;6.20;5.20;;;26.10;99.90;;;;;;4973548;28;20180;-75
2021/07/03 08:09:54;;;;;;;8.80;6.73;;;26.10;99.90;;;;;;4973536;28;20412;-74
2021/07/03 08:12:20;;;;;;;6.50;5.97;;;26.20;99.90;;;;;;4973277;28;20196;-74
2021/07/03 08:14:45;;;;;;;6.83;6.17;;;26.20;99.90;;;;;;4973491;28;20180;-74
2021/07/03 08:17:11;;;;;;;7.10;6.40;;;26.40;99.90;;;;;;4973638;28;20723;-74
2021/07/03 08:19:38;;;;;;;8.60;5.10;;;26.70;99.90;;;;;;4973583;28;20251;-74
2021/07/03 08:22:03;;;;;;;6.63;6.00;;;26.80;99.90;;;;;;4973141;28;20558;-74
2021/07/03 08:24:29;;;;;;;6.27;5.77;;;27.20;99.90;;;;;;4973430;28;20410;-74
2021/07/03 08:26:55;;;;;;;6.73;6.00;;;27.60;99.90;;;;;;4973666;28;20263;-74
2021/07/03 08:29:20;;;;;;;7.40;6.30;;;27.60;99.90;;;;;;4972489;28;20187;-74
2021/07/03 08:31:49;;;;;;;6.53;6.00;;;28.00;99.90;;;;;;4973071;28;20286;-74
2021/07/03 08:34:14;;;;;;;5.93;5.40;;;28.10;99.90;;;;;;4973307;28;20235;-74
2021/07/03 08:36:40;;;;;;;6.43;5.83;;;28.10;99.90;;;;;;4958722;28;20455;-77
2021/07/03 08:39:06;;;;;;;5.80;5.30;;;28.30;99.90;;;;;;4973241;28;20178;-77
2021/07/03 08:41:33;;;;;;;6.00;5.13;;;28.10;99.90;;;;;;4973369;28;20188;-76
2021/07/03 08:43:58;;;;;;;12.43;5.87;;;27.90;99.90;;;;;;4971706;28;20183;-77
2021/07/03 08:46:24;;;;;;;5.77;5.20;;;28.00;99.90;;;;;;4973139;28;20511;-76
2021/07/03 08:48:58;;;;;;;5.80;5.40;;;28.20;99.90;;;;;;4972921;28;20180;-77
2021/07/03 08:51:24;;;;;;;6.07;5.50;;;28.30;99.90;;;;;;4972556;28;20192;-77
2021/07/03 08:53:50;;;;;;;5.17;4.67;;;28.50;99.90;;;;;;4972369;28;20536;-76
2021/07/03 08:56:16;;;;;;;6.43;5.83;;;28.70;99.90;;;;;;4972416;28;20212;-77
2021/07/03 08:58:42;;;;;;;5.47;5.07;;;28.90;99.90;;;;;;4972407;28;20935;-77
2021/07/03 09:01:07;;;;;;;9.33;6.23;;;29.00;99.90;;;;;;4971990;28;20208;-77
2021/07/03 09:03:33;;;;;;;5.70;5.10;;;29.00;99.90;;;;;;4972269;28;20186;-76
2021/07/03 09:06:04;;;;;;;5.80;5.20;;;29.00;99.90;;;;;;4972792;28;20637;-77
2021/07/03 09:08:30;;;;;;;6.43;5.90;;;28.90;99.90;;;;;;4973336;28;20422;-76
2021/07/03 09:11:22;;;;;;;6.00;5.50;;;29.30;99.90;;;;;;4973729;28;20794;-77
2021/07/03 09:14:07;;;;;;;6.13;5.53;;;29.40;99.90;;;;;;4968687;28;20663;-77
2021/07/03 09:16:35;;;;;;;6.23;5.67;;;29.20;99.90;;;;;;4954182;28;20466;-76
2021/07/03 09:19:02;;;;;;;6.40;5.30;;;29.40;99.90;;;;;;4971097;28;20477;-76
2021/07/03 09:21:29;;;;;;;6.70;6.10;;;29.90;99.90;;;;;;4972383;28;20490;-77
2021/07/03 09:23:55;;;;;;;6.33;5.23;;;30.00;99.90;;;;;;4954313;28;20458;-77
2021/07/03 09:26:20;;;;;;;6.53;5.93;;;30.20;99.90;;;;;;4968034;28;20467;-77
2021/07/03 09:28:47;;;;;;;5.50;5.00;;;29.80;99.90;;;;;;4968738;28;20605;-77
2021/07/03 09:31:15;;;;;;;4.83;4.43;;;30.60;99.90;;;;;;4972299;28;20219;-77
2021/07/03 09:33:52;;;;;;;7.47;5.60;;;30.40;99.90;;;;;;4972498;28;20416;-77
2021/07/03 09:36:27;;;;;;;5.70;5.20;;;30.40;99.90;;;;;;4972799;28;20473;-76
2021/07/03 09:38:55;;;;;;;5.93;5.33;;;30.80;99.90;;;;;;4972468;28;20419;-74
2021/07/03 09:41:30;;;;;;;6.17;5.60;;;30.90;99.90;;;;;;4972191;28;20436;-74
2021/07/03 09:43:57;;;;;;;6.23;5.73;;;31.40;99.90;;;;;;4972117;28;20434;-74
2021/07/03 09:46:27;;;;;;;5.90;5.50;;;31.20;99.90;;;;;;4973042;28;20434;-75
2021/07/03 09:48:55;;;;;;;5.73;5.23;;;31.60;99.90;;;;;;4974162;28;20426;-75
2021/07/03 09:51:30;;;;;;;5.17;4.77;;;31.40;99.50;;;;;;4983679;28;20490;-75
2021/07/03 09:53:56;;;;;;;10.70;5.20;;;31.30;99.90;;;;;;4956173;28;20422;-75
2021/07/03 09:56:23;;;;;;;5.67;5.27;;;31.90;99.90;;;;;;4972386;28;20459;-76
2021/07/03 09:58:48;;;;;;;5.60;5.20;;;32.10;98.90;;;;;;4954366;28;20779;-75
2021/07/03 10:01:14;;;;;;;5.67;5.27;;;31.80;99.00;;;;;;4954924;28;20454;-76
2021/07/03 10:03:39;;;;;;;6.73;5.20;;;32.00;97.30;;;;;;4954625;28;20180;-76
2021/07/03 10:06:09;;;;;;;6.20;5.60;;;31.80;99.30;;;;;;4954666;28;20278;-75
2021/07/03 10:08:41;;;;;;;7.63;5.83;;;31.80;98.10;;;;;;4972541;28;20528;-74
2021/07/03 10:11:10;;;;;;;5.10;4.70;;;32.20;97.60;;;;;;4973358;28;20585;-76
2021/07/03 10:13:38;;;;;;;5.10;4.70;;;32.00;97.80;;;;;;4972298;28;20970;-76
2021/07/03 10:16:07;;;;;;;4.93;4.53;;;31.90;97.80;;;;;;4972327;28;20469;-77
2021/07/03 10:18:33;;;;;;;5.50;5.20;;;31.20;96.30;;;;;;4972134;28;20419;-76
2021/07/03 10:21:13;;;;;;;6.03;5.43;;;30.50;96.50;;;;;;4987896;28;20796;-76
2021/07/03 10:23:44;;;;;;;5.27;4.83;;;30.40;97.70;;;;;;4991035;28;20258;-76
2021/07/03 10:26:11;;;;;;;6.17;5.57;;;30.70;96.80;;;;;;4991601;28;20797;-76
2021/07/03 10:28:41;;;;;;;5.83;5.13;;;31.00;96.60;;;;;;4991389;28;20423;-76
2021/07/03 10:31:12;;;;;;;5.57;4.50;;;31.20;95.70;;;;;;4992779;28;20434;-76
2021/07/03 10:33:47;;;;;;;5.30;4.80;;;31.50;97.10;;;;;;4994725;28;20429;-76
2021/07/03 10:36:32;;;;;;;5.05;4.65;;;31.40;95.80;;;;;;4994197;28;20483;-75
2021/07/03 10:39:00;;;;;;;5.50;5.00;;;31.10;97.20;;;;;;4994670;28;20191;-74
2021/07/03 10:41:31;;;;;;;4.40;4.10;;;31.50;95.80;;;;;;4991949;28;21008;-75
2021/07/03 10:44:11;;;;;;;6.03;5.37;;;31.70;94.20;;;;;;4979034;28;20414;-74
2021/07/03 10:46:43;;;;;;;4.63;4.23;;;31.60;96.20;;;;;;4979273;28;20784;-75
2021/07/03 10:49:20;;;;;;;5.27;4.90;;;31.80;94.60;;;;;;4957877;28;20421;-75
2021/07/03 10:51:51;;;;;;;5.10;4.80;;;32.00;93.50;;;;;;4974927;28;20435;-75
2021/07/03 10:54:27;;;;;;;4.20;3.90;;;32.00;93.70;;;;;;4956159;28;20423;-75
2021/07/03 10:57:05;;;;;;;6.80;4.80;;;31.80;93.50;;;;;;4974774;28;20454;-75
2021/07/03 10:59:34;;;;;;;4.50;4.20;;;31.30;94.90;;;;;;4975238;28;20407;-75
2021/07/03 11:02:17;;;;;;;4.63;4.20;;;31.60;95.00;;;;;;4974665;28;20931;-75
2021/07/03 11:04:51;;;;;;;5.33;4.87;;;31.60;95.80;;;;;;4980525;28;20447;-76
2021/07/03 11:07:19;;;;;;;5.60;4.77;;;31.10;94.00;;;;;;4981538;28;20465;-75
2021/07/03 11:09:46;;;;;;;4.53;4.23;;;31.20;93.90;;;;;;4994086;28;20501;-75
2021/07/03 11:12:27;;;;;;;5.10;4.60;;;30.80;94.00;;;;;;4994221;28;20459;-75
2021/07/03 11:14:58;;;;;;;7.90;4.87;;;30.40;94.90;;;;;;4994268;28;20438;-75
2021/07/03 11:17:27;;;;;;;5.70;5.20;;;29.90;94.80;;;;;;4993727;28;20596;-75
2021/07/03 11:19:55;;;;;;;5.77;5.27;;;30.00;95.30;;;;;;4993731;28;20407;-75
2021/07/03 11:22:25;;;;;;;7.40;5.50;;;30.10;94.70;;;;;;4993671;28;20422;-75
2021/07/03 11:24:58;;;;;;;5.07;4.57;;;30.20;95.40;;;;;;4993824;28;20863;-75
2021/07/03 11:27:26;;;;;;;5.17;4.67;;;30.20;95.70;;;;;;4993758;28;20414;-75
2021/07/03 11:29:53;;;;;;;4.50;4.20;;;30.20;95.80;;;;;;4993490;28;20426;-75
2021/07/03 11:32:18;;;;;;;5.23;4.80;;;30.10;94.90;;;;;;4993477;28;20962;-75
2021/07/03 11:34:52;;;;;;;5.53;4.80;;;30.00;95.10;;;;;;4976018;28;20425;-75
2021/07/03 11:37:37;;;;;;;6.00;5.40;;;30.10;94.70;;;;;;4982376;28;20251;-75
2021/07/03 11:40:09;;;;;;;6.37;5.50;;;30.00;94.80;;;;;;4973821;28;20412;-75
2021/07/03 11:42:38;;;;;;;5.30;4.90;;;29.50;94.50;;;;;;4973103;28;20431;-75
2021/07/03 11:45:07;;;;;;;5.93;4.60;;;29.10;94.90;;;;;;4974016;28;20490;-75
2021/07/03 11:47:39;;;;;;;4.33;4.03;;;28.50;94.50;;;;;;4974264;28;20900;-75
2021/07/03 11:50:12;;;;;;;4.33;4.07;;;28.30;96.80;;;;;;4974038;28;20928;-75
2021/07/03 11:52:46;;;;;;;5.43;4.63;;;28.60;96.20;;;;;;4973998;28;20920;-75
2021/07/03 11:55:13;;;;;;;5.43;5.03;;;28.70;95.30;;;;;;4974233;28;20510;-75
2021/07/03 11:57:44;;;;;;;4.87;4.57;;;28.60;95.80;;;;;;4973623;28;20833;-75
2021/07/03 12:00:16;;;;;;;4.83;4.43;;;28.70;98.30;;;;;;4973835;28;20419;-74
2021/07/03 12:02:43;;;;;;;5.27;4.87;;;29.10;97.50;;;;;;4976773;28;20439;-75
2021/07/03 12:05:10;;;;;;;6.23;5.73;;;29.60;97.10;;;;;;4964677;28;20862;-75
2021/07/03 12:07:36;;;;;;;5.40;4.97;;;29.90;95.90;;;;;;4992772;28;20446;-75
2021/07/03 12:10:07;;;;;;;4.90;4.50;;;29.80;95.60;;;;;;4975520;28;20430;-75
2021/07/03 12:12:33;;;;;;;5.70;5.30;;;28.70;96.60;;;;;;4992871;28;20969;-75
2021/07/03 12:15:01;;;;;;;5.77;5.37;;;28.70;98.30;;;;;;4993179;28;20414;-75
2021/07/03 12:17:27;;;;;;;5.10;4.70;;;28.70;98.50;;;;;;4992794;28;20978;-75
2021/07/03 12:20:11;;;;;;;4.97;4.67;;;28.90;98.50;;;;;;4992845;28;20422;-75
2021/07/03 12:22:38;;;;;;;5.97;4.73;;;29.30;96.80;;;;;;4992704;28;20179;-75
2021/07/03 12:25:15;;;;;;;4.50;4.10;;;29.40;97.90;;;;;;4992464;28;20425;-75
2021/07/03 12:27:49;;;;;;;5.50;4.77;;;29.30;94.60;;;;;;4992919;28;20418;-75
2021/07/03 12:30:15;;;;;;;5.27;4.37;;;29.30;95.90;;;;;;4993218;28;20863;-75
2021/07/03 12:32:41;;;;;;;5.23;4.83;;;29.00;95.50;;;;;;4992275;28;20572;-75
2021/07/03 12:35:13;;;;;;;5.27;4.67;;;28.60;94.60;;;;;;4991089;28;20513;-75
2021/07/03 12:37:39;;;;;;;5.70;5.20;;;28.30;94.70;;;;;;4992237;28;20229;-75
2021/07/03 12:40:16;;;;;;;5.87;4.77;;;28.10;94.80;;;;;;4992861;28;20469;-75
2021/07/03 12:42:44;;;;;;;5.43;5.03;;;28.00;94.70;;;;;;4987694;28;20430;-75
2021/07/03 12:45:11;;;;;;;5.23;4.73;;;28.20;95.20;;;;;;4972701;28;20763;-75
2021/07/03 12:47:38;;;;;;;5.43;5.03;;;28.30;96.10;;;;;;4972506;28;20551;-75
2021/07/03 12:50:07;;;;;;;5.17;4.77;;;28.40;94.80;;;;;;4955199;28;20505;-76
2021/07/03 12:52:43;;;;;;;5.30;4.30;;;28.50;96.60;;;;;;4972607;28;20467;-76
2021/07/03 12:55:10;;;;;;;4.60;4.30;;;28.70;96.60;;;;;;4972728;28;20434;-75
2021/07/03 12:57:40;;;;;;;5.10;4.70;;;28.70;96.40;;;;;;4955495;28;21046;-75
2021/07/03 13:00:06;;;;;;;5.80;5.30;;;28.40;94.60;;;;;;4956149;28;20422;-76
2021/07/03 13:02:31;;;;;;;4.80;4.37;;;28.20;94.80;;;;;;4973366;28;20442;-76
2021/07/03 13:05:00;;;;;;;4.97;4.63;;;28.10;95.50;;;;;;4973186;28;20419;-76
2021/07/03 13:07:26;;;;;;;8.43;4.40;;;28.10;96.80;;;;;;4973426;28;20373;-76
2021/07/03 13:09:51;;;;;;;4.50;4.10;;;27.90;97.60;;;;;;4973366;28;20415;-76
2021/07/03 13:12:17;;;;;;;5.33;4.83;;;27.90;96.00;;;;;;4955650;28;20210;-74
2021/07/03 13:14:46;;;;;;;4.83;4.50;;;27.80;96.90;;;;;;4973261;28;20199;-76
2021/07/03 13:17:12;;;;;;;7.37;5.03;;;27.80;95.70;;;;;;4974371;28;20216;-78
2021/07/03 13:19:38;;;;;;;4.10;3.80;;;27.90;95.70;;;;;;4955410;28;20446;-75
2021/07/03 13:22:04;;;;;;;5.37;4.43;;;28.00;95.60;;;;;;4955134;28;20442;-75
2021/07/03 13:24:29;;;;;;;4.97;4.60;;;27.90;95.90;;;;;;4973790;28;20524;-78
2021/07/03 13:26:55;;;;;;;4.37;3.97;;;27.80;95.40;;;;;;4974825;28;20542;-74
2021/07/03 13:29:21;;;;;;;4.90;4.60;;;27.90;96.50;;;;;;4973247;28;20580;-72
2021/07/03 13:31:46;;;;;;;5.10;4.70;;;27.50;95.70;;;;;;4955075;28;20293;-69
2021/07/03 13:34:12;;;;;;;6.43;5.20;;;27.40;96.60;;;;;;4972623;28;20172;-75
2021/07/03 13:36:38;;;;;;;5.77;5.27;;;27.30;97.40;;;;;;4972466;28;20219;-76
2021/07/03 13:39:04;;;;;;;5.87;5.00;;;27.50;99.20;;;;;;4972044;28;20422;-76
2021/07/03 13:41:33;;;;;;;5.43;4.70;;;27.70;98.40;;;;;;4972191;28;20660;-75
2021/07/03 13:44:14;;;;;;;4.90;4.50;;;27.90;98.20;;;;;;4915418;28;20435;-75
2021/07/03 13:46:40;;;;;;;7.10;5.10;;;27.70;95.60;;;;;;4972453;28;20426;-75
2021/07/03 13:49:07;;;;;;;5.60;5.17;;;27.70;96.40;;;;;;4954566;28;20667;-75
2021/07/03 13:51:32;;;;;;;5.93;5.43;;;27.70;95.90;;;;;;4972439;28;20222;-74
2021/07/03 13:53:58;;;;;;;4.37;4.07;;;27.60;96.50;;;;;;4971690;28;20427;-77
2021/07/03 13:56:24;;;;;;;5.13;4.73;;;27.80;97.80;;;;;;4971937;28;20216;-75
2021/07/03 13:58:49;;;;;;;5.10;4.70;;;27.90;97.00;;;;;;4972419;28;20281;-75
2021/07/03 14:01:15;;;;;;;5.10;4.60;;;28.00;97.00;;;;;;4972698;28;20215;-73
2021/07/03 14:03:40;;;;;;;6.57;5.87;;;28.10;96.40;;;;;;4972603;28;20176;-76
2021/07/03 14:06:06;;;;;;;4.93;4.63;;;28.10;95.90;;;;;;4974529;28;20270;-76
2021/07/03 14:08:33;;;;;;;4.63;4.23;;;28.00;95.20;;;;;;4976360;28;20554;-76
2021/07/03 14:10:59;;;;;;;5.17;4.77;;;27.90;95.70;;;;;;4975893;28;20576;-77
2021/07/03 14:13:25;;;;;;;7.40;4.60;;;27.90;96.30;;;;;;4976980;28;20424;-78
2021/07/03 14:15:51;;;;;;;5.17;4.77;;;27.80;95.20;;;;;;4957472;28;20184;-76
2021/07/03 14:18:16;;;;;;;5.20;4.70;;;27.70;96.10;;;;;;4973311;28;20430;-78
2021/07/03 14:20:42;;;;;;;6.13;5.53;;;27.70;95.70;;;;;;4975911;28;20199;-75
2021/07/03 14:23:07;;;;;;;4.50;4.20;;;27.70;96.10;;;;;;4976766;28;20216;-76
2021/07/03 14:25:33;;;;;;;5.33;4.87;;;27.60;95.30;;;;;;4980368;28;20168;-78
2021/07/03 14:27:59;;;;;;;5.67;5.17;;;27.60;95.80;;;;;;4976631;28;20205;-74
2021/07/03 14:30:25;;;;;;;4.93;4.47;;;27.70;96.00;;;;;;4975778;28;20190;-76
2021/07/03 14:32:50;;;;;;;5.13;4.70;;;27.80;97.40;;;;;;4976018;28;20558;-74
2021/07/03 14:35:16;;;;;;;3.90;3.60;;;27.90;95.50;;;;;;4958853;28;20187;-73
2021/07/03 14:37:42;;;;;;;5.30;4.90;;;27.90;94.90;;;;;;4975750;28;20239;-74
2021/07/03 14:40:08;;;;;;;5.07;4.67;;;27.60;95.60;;;;;;4975766;28;20180;-73
2021/07/03 14:42:34;;;;;;;5.13;4.60;;;27.70;95.80;;;;;;4975692;28;20196;-72
2021/07/03 14:44:59;;;;;;;4.53;4.20;;;27.70;95.30;;;;;;4975064;28;20896;-74
2021/07/03 14:47:25;;;;;;;5.37;4.87;;;27.80;96.70;;;;;;4975148;28;20176;-77
2021/07/03 14:49:51;;;;;;;5.07;4.67;;;27.90;96.30;;;;;;4954291;28;20196;-77
2021/07/03 14:52:18;;;;;;;5.77;5.27;;;28.00;97.50;;;;;;4973271;28;20210;-77
2021/07/03 14:54:44;;;;;;;5.20;4.80;;;28.10;97.40;;;;;;4974726;28;20425;-78
2021/07/03 14:57:10;;;;;;;5.33;4.93;;;28.10;96.60;;;;;;4973557;28;20549;-78
2021/07/03 14:59:35;;;;;;;4.77;4.37;;;28.10;98.30;;;;;;4975492;28;20443;-77
2021/07/03 15:02:01;;;;;;;4.63;4.23;;;27.90;94.70;;;;;;4974771;28;20196;-77
2021/07/03 15:04:27;;;;;;;4.80;4.40;;;27.80;95.70;;;;;;4975105;28;20210;-77
2021/07/03 15:06:52;;;;;;;4.90;4.53;;;27.70;95.80;;;;;;4974599;28;20260;-76
2021/07/03 15:09:19;;;;;;;4.80;4.50;;;27.50;95.90;;;;;;4975155;28;20176;-77
2021/07/03 15:11:44;;;;;;;5.67;5.17;;;27.40;95.80;;;;;;4974748;28;20287;-75
2021/07/03 15:14:10;;;;;;;4.83;4.40;;;27.20;98.20;;;;;;4975055;28;20474;-75
2021/07/03 15:16:36;;;;;;;4.40;4.10;;;27.10;97.50;;;;;;4973932;28;20212;-76
2021/07/03 15:19:01;;;;;;;6.70;4.70;;;27.00;98.10;;;;;;4974384;28;20274;-75
2021/07/03 15:21:27;;;;;;;4.63;4.23;;;27.00;97.50;;;;;;4974868;28;20250;-78
2021/07/03 15:23:52;;;;;;;4.83;4.40;;;27.10;96.50;;;;;;4974705;28;20180;-78
2021/07/03 15:26:19;;;;;;;8.43;5.47;;;27.00;96.50;;;;;;4975107;28;20565;-78
2021/07/03 15:28:46;;;;;;;5.27;4.87;;;27.00;99.40;;;;;;4972477;28;20510;-78
2021/07/03 15:31:12;;;;;;;5.97;4.63;;;26.90;97.80;;;;;;4951178;29;20464;-78
2021/07/03 15:33:38;;;;;;;5.10;4.70;;;26.80;97.90;;;;;;4974347;28;20943;-78
2021/07/03 15:36:04;;;;;;;5.70;5.30;;;26.70;98.10;;;;;;4974660;28;20204;-75
2021/07/03 15:38:30;;;;;;;4.80;4.40;;;26.50;97.80;;;;;;4974444;28;20518;-75
2021/07/03 15:40:56;;;;;;;5.33;4.93;;;26.40;98.40;;;;;;4969904;28;20888;-75
2021/07/03 15:43:22;;;;;;;6.20;5.63;;;26.20;99.20;;;;;;4974937;28;20224;-75
2021/07/03 15:45:48;;;;;;;5.30;4.87;;;26.20;99.70;;;;;;4975366;28;20300;-75
2021/07/03 15:48:14;;;;;;;4.60;4.20;;;26.20;98.70;;;;;;4975291;28;20643;-75
2021/07/03 15:50:44;;;;;;;5.77;5.27;;;26.10;98.50;;;;;;4974784;28;20841;-75
2021/07/03 15:53:10;;;;;;;5.57;5.07;;;26.00;98.40;;;;;;4957625;28;20412;-75
2021/07/03 15:55:36;;;;;;;6.20;5.37;;;26.00;98.50;;;;;;4957317;28;20423;-75
2021/07/03 15:58:01;;;;;;;5.87;5.37;;;26.00;99.60;;;;;;4974804;28;20751;-77
2021/07/03 16:00:30;;;;;;;5.40;4.80;;;26.00;99.60;;;;;;4974865;28;20183;-79
2021/07/03 16:02:55;;;;;;;6.90;6.30;;;25.90;99.90;;;;;;4974354;28;20179;-77
2021/07/03 16:05:22;;;;;;;6.87;6.27;;;25.80;99.90;;;;;;4974384;28;20411;-76
2021/07/03 16:07:49;;;;;;;6.33;5.73;;;25.70;99.90;;;;;;4955362;28;20188;-77
2021/07/03 16:10:15;;;;;;;6.67;5.37;;;25.60;99.90;;;;;;4956911;28;20439;-76
2021/07/03 16:12:40;;;;;;;5.93;5.33;;;25.50;99.90;;;;;;4974724;28;20502;-76
2021/07/03 16:15:07;;;;;;;5.63;4.93;;;25.40;99.90;;;;;;4957568;28;20199;-76
2021/07/03 16:17:33;;;;;;;5.90;5.40;;;25.40;99.90;;;;;;4974224;28;20208;-76
2021/07/03 16:19:59;;;;;;;5.10;4.70;;;25.30;99.90;;;;;;4975028;28;20420;-77
2021/07/03 16:22:27;;;;;;;7.83;6.10;;;25.20;99.90;;;;;;4974793;28;20672;-78
2021/07/03 16:24:53;;;;;;;6.57;5.87;;;25.10;99.90;;;;;;4960017;28;20415;-78
2021/07/03 16:27:19;;;;;;;6.47;5.97;;;25.00;99.90;;;;;;4976635;28;20426;-75
2021/07/03 16:29:44;;;;;;;6.07;5.33;;;24.90;99.90;;;;;;4974566;28;20912;-76
2021/07/03 16:32:10;;;;;;;5.33;4.83;;;24.90;99.90;;;;;;4974618;28;20464;-79
2021/07/03 16:34:37;;;;;;;5.10;4.70;;;24.90;99.90;;;;;;4973931;28;20172;-78
2021/07/03 16:37:04;;;;;;;5.80;5.33;;;24.80;99.90;;;;;;4956378;28;20255;-79
2021/07/03 16:39:29;;;;;;;6.27;5.23;;;24.80;99.90;;;;;;4974378;28;20426;-79
2021/07/03 16:41:55;;;;;;;5.07;4.57;;;24.80;99.90;;;;;;4973529;28;20491;-79
2021/07/03 16:44:20;;;;;;;5.47;5.07;;;24.70;99.90;;;;;;4956517;28;20203;-79
2021/07/03 16:46:46;;;;;;;5.27;4.87;;;24.70;99.90;;;;;;4973804;28;20176;-79
2021/07/03 16:49:11;;;;;;;6.83;5.17;;;24.60;99.90;;;;;;4974297;28;20179;-79
2021/07/03 16:51:37;;;;;;;6.30;5.20;;;24.60;99.90;;;;;;4954883;28;20203;-79
2021/07/03 16:54:03;;;;;;;6.30;5.37;;;24.60;99.90;;;;;;4972889;28;20246;-79
2021/07/03 16:56:29;;;;;;;4.30;4.03;;;24.70;99.90;;;;;;4972777;28;20275;-79
2021/07/03 16:58:55;;;;;;;5.10;4.63;;;24.70;99.90;;;;;;4974266;28;20494;-79
2021/07/03 17:01:21;;;;;;;6.40;5.80;;;24.80;99.90;;;;;;4951885;28;20606;-79
2021/07/03 17:03:46;;;;;;;5.53;5.10;;;24.80;99.90;;;;;;4974046;28;20187;-79
2021/07/03 17:06:12;;;;;;;5.30;4.87;;;24.80;99.90;;;;;;4974279;28;20183;-79
2021/07/03 17:08:38;;;;;;;5.20;4.80;;;24.90;99.90;;;;;;4973951;28;20274;-78
2021/07/03 17:11:03;;;;;;;5.33;4.83;;;24.80;99.90;;;;;;4973575;28;20630;-78
2021/07/03 17:13:29;;;;;;;5.30;4.90;;;24.80;99.90;;;;;;4973521;28;20550;-79
2021/07/03 17:15:55;;;;;;;8.70;5.13;;;24.80;99.90;;;;;;4973847;28;20310;-78